Easterwood Field
KCLL : now visible

Airfield :











YOU CAN JOIN US ON...

 
LOGIN :

Register | Disclaimer

   EN    FR    IT 

 









Legend :    VFR   Marginal VFR   IFR   Intensive IFR   Very Intensive IFR
Visi :
Ceiling :
>= 8 km
>= 3000ft
5 to 8 km
1000 to 3000 ft
1500m to 5 km
500 to 1000 ft
800 to 1500m
200 to 500 ft
< 800m
< 200 ft
Symbols :   Thunderstorms  Fog  Heavy snow  Heavy precipitations  Wind > 20 kt






- Airport Elevation : 320 ft
- IATA code : CLL


KCLL - Easterwood Field

CURRENT METAR :
  • 050753Z AUTO 12005KT 10SM OVC080 27/21 A3004 RMK AO2 SLP167 T02720211

EXPIRED METARs :
  • 050653Z AUTO 10004KT 10SM FEW042 OVC080 28/22 A3005 RMK AO2 SLP169 T02780222
  • 050553Z AUTO 06003KT 10SM SCT046 OVC080 28/23 A3005 RMK AO2 SLP170 60000 T02780233 10317 20278 403390244 51011

TAF KCLL
Valid from the 05 at 06:00 until the 06 at 06:00 UTC


050520Z 0506/0606 VRB03KT P6SM BKN045 BKN050 OVC090
FM051300 11005KT P6SM SCT030 BKN200
FM051600 14007KT P6SM FEW080 SCT250
FM060300 VRB02KT P6SM SCT250
KZHU FIR / North America



MET'MAP, your aeronautical weather chart ! - Copyright ORBIFLY December 2007 - Disclaimer

ORBIFLY MET'MAP TEAM :

Programming & Development : Alexandra Zaïnal
Concept & original design : Baudouin d'Aumeries
Assistance for programming : Marc-Olivier Méhu
Technical & hardware support : Manuel Goepfert

Contact : metmap@orbifly.com




SOURCES & CREDITS :

   NOAA       Earth
Advisory